sensor_id;sensor_type;location;lat;lon;timestamp;P1;durP1;ratioP1;P2;durP2;ratioP2
31095;SDS011;17749;51.962;8.560;2023-04-07T05:01:33;16.63;;;9.07;;
31095;SDS011;17749;51.962;8.560;2023-04-07T05:04:07;13.60;;;9.45;;
31095;SDS011;17749;51.962;8.560;2023-04-07T05:06:41;14.00;;;9.00;;
31095;SDS011;17749;51.962;8.560;2023-04-07T05:09:10;15.57;;;8.80;;
31095;SDS011;17749;51.962;8.560;2023-04-07T05:11:46;15.40;;;9.55;;
31095;SDS011;17749;51.962;8.560;2023-04-07T05:14:13;16.08;;;9.52;;
31095;SDS011;17749;51.962;8.560;2023-04-07T05:16:58;13.52;;;9.30;;
31095;SDS011;17749;51.962;8.560;2023-04-07T05:19:29;14.30;;;9.38;;
31095;SDS011;17749;51.962;8.560;2023-04-07T05:22:03;15.80;;;10.15;;
31095;SDS011;17749;51.962;8.560;2023-04-07T05:24:46;16.15;;;10.27;;
31095;SDS011;17749;51.962;8.560;2023-04-07T05:27:28;17.30;;;9.98;;
31095;SDS011;17749;51.962;8.560;2023-04-07T05:30:00;17.83;;;10.68;;
31095;SDS011;17749;51.962;8.560;2023-04-07T05:32:42;17.17;;;10.90;;
31095;SDS011;17749;51.962;8.560;2023-04-07T05:35:45;16.85;;;10.98;;
31095;SDS011;17749;51.962;8.560;2023-04-07T05:38:13;17.00;;;10.30;;
31095;SDS011;17749;51.962;8.560;2023-04-07T05:41:08;15.25;;;9.57;;
31095;SDS011;17749;51.962;8.560;2023-04-07T05:43:49;17.92;;;10.27;;
31095;SDS011;17749;51.962;8.560;2023-04-07T05:46:33;18.90;;;10.93;;
31095;SDS011;17749;51.962;8.560;2023-04-07T05:49:17;16.35;;;10.35;;
31095;SDS011;17749;51.962;8.560;2023-04-07T05:51:53;16.17;;;10.27;;
31095;SDS011;17749;51.962;8.560;2023-04-07T05:54:46;15.23;;;9.50;;
31095;SDS011;17749;51.962;8.560;2023-04-07T05:57:14;22.23;;;12.13;;
31095;SDS011;17749;51.962;8.560;2023-04-07T05:59:44;15.23;;;9.63;;
31095;SDS011;17749;51.962;8.560;2023-04-07T06:02:12;14.38;;;10.23;;
31095;SDS011;17749;51.962;8.560;2023-04-07T06:04:39;17.33;;;10.77;;
31095;SDS011;17749;51.962;8.560;2023-04-07T06:07:09;16.20;;;9.65;;
31095;SDS011;17749;51.962;8.560;2023-04-07T06:09:38;13.00;;;8.57;;
31095;SDS011;17749;51.962;8.560;2023-04-07T06:12:05;15.13;;;9.82;;
31095;SDS011;17749;51.962;8.560;2023-04-07T06:14:32;14.27;;;9.63;;
31095;SDS011;17749;51.962;8.560;2023-04-07T06:16:59;14.63;;;8.95;;
31095;SDS011;17749;51.962;8.560;2023-04-07T06:19:26;16.58;;;9.88;;
31095;SDS011;17749;51.962;8.560;2023-04-07T06:21:53;17.35;;;10.23;;
31095;SDS011;17749;51.962;8.560;2023-04-07T06:24:20;16.35;;;9.82;;
31095;SDS011;17749;51.962;8.560;2023-04-07T06:29:19;12.80;;;8.95;;
31095;SDS011;17749;51.962;8.560;2023-04-07T06:31:46;15.85;;;9.55;;
31095;SDS011;17749;51.962;8.560;2023-04-07T06:34:13;15.40;;;9.10;;
31095;SDS011;17749;51.962;8.560;2023-04-07T06:36:40;14.82;;;8.95;;
31095;SDS011;17749;51.962;8.560;2023-04-07T06:39:07;16.58;;;9.90;;
31095;SDS011;17749;51.962;8.560;2023-04-07T06:41:34;13.77;;;8.75;;
31095;SDS011;17749;51.962;8.560;2023-04-07T06:44:02;13.70;;;9.45;;
31095;SDS011;17749;51.962;8.560;2023-04-07T06:46:29;15.88;;;8.95;;
31095;SDS011;17749;51.962;8.560;2023-04-07T06:48:56;13.60;;;8.60;;
31095;SDS011;17749;51.962;8.560;2023-04-07T06:51:24;17.38;;;9.27;;
31095;SDS011;17749;51.962;8.560;2023-04-07T06:53:52;13.23;;;9.10;;
31095;SDS011;17749;51.962;8.560;2023-04-07T06:56:19;12.80;;;7.82;;
31095;SDS011;17749;51.962;8.560;2023-04-07T06:58:46;12.85;;;8.48;;
31095;SDS011;17749;51.962;8.560;2023-04-07T07:01:13;14.23;;;8.55;;
31095;SDS011;17749;51.962;8.560;2023-04-07T07:03:40;14.43;;;8.70;;
31095;SDS011;17749;51.962;8.560;2023-04-07T07:06:07;14.18;;;8.23;;
31095;SDS011;17749;51.962;8.560;2023-04-07T07:08:44;13.75;;;8.35;;
31095;SDS011;17749;51.962;8.560;2023-04-07T07:11:12;12.25;;;7.95;;
31095;SDS011;17749;51.962;8.560;2023-04-07T07:13:39;12.18;;;8.00;;
31095;SDS011;17749;51.962;8.560;2023-04-07T07:16:06;10.73;;;7.10;;
31095;SDS011;17749;51.962;8.560;2023-04-07T07:18:47;12.82;;;8.75;;
31095;SDS011;17749;51.962;8.560;2023-04-07T07:21:29;13.85;;;8.07;;
31095;SDS011;17749;51.962;8.560;2023-04-07T07:24:13;12.68;;;8.45;;
31095;SDS011;17749;51.962;8.560;2023-04-07T07:26:56;10.65;;;7.63;;
31095;SDS011;17749;51.962;8.560;2023-04-07T07:29:40;11.20;;;7.07;;
31095;SDS011;17749;51.962;8.560;2023-04-07T07:32:22;10.55;;;6.93;;
31095;SDS011;17749;51.962;8.560;2023-04-07T07:35:03;9.68;;;6.50;;
31095;SDS011;17749;51.962;8.560;2023-04-07T07:37:32;9.88;;;6.35;;
31095;SDS011;17749;51.962;8.560;2023-04-07T07:39:59;12.63;;;6.63;;
31095;SDS011;17749;51.962;8.560;2023-04-07T07:42:46;9.65;;;6.30;;
31095;SDS011;17749;51.962;8.560;2023-04-07T07:45:13;8.90;;;6.35;;
31095;SDS011;17749;51.962;8.560;2023-04-07T07:47:41;11.05;;;6.50;;
31095;SDS011;17749;51.962;8.560;2023-04-07T07:50:20;8.65;;;6.72;;
31095;SDS011;17749;51.962;8.560;2023-04-07T07:52:48;10.02;;;6.38;;
31095;SDS011;17749;51.962;8.560;2023-04-07T07:55:18;9.10;;;5.95;;
31095;SDS011;17749;51.962;8.560;2023-04-07T07:57:47;10.07;;;6.13;;
31095;SDS011;17749;51.962;8.560;2023-04-07T08:00:19;8.13;;;5.72;;
31095;SDS011;17749;51.962;8.560;2023-04-07T08:02:46;8.18;;;5.95;;
31095;SDS011;17749;51.962;8.560;2023-04-07T08:05:13;8.57;;;5.85;;
31095;SDS011;17749;51.962;8.560;2023-04-07T08:07:41;11.38;;;6.35;;
31095;SDS011;17749;51.962;8.560;2023-04-07T08:10:09;8.20;;;5.53;;
31095;SDS011;17749;51.962;8.560;2023-04-07T08:12:59;8.90;;;6.05;;
31095;SDS011;17749;51.962;8.560;2023-04-07T08:15:30;9.70;;;5.88;;
31095;SDS011;17749;51.962;8.560;2023-04-07T08:17:57;8.38;;;5.72;;
31095;SDS011;17749;51.962;8.560;2023-04-07T08:20:26;7.57;;;5.50;;
31095;SDS011;17749;51.962;8.560;2023-04-07T08:22:53;9.57;;;5.50;;
31095;SDS011;17749;51.962;8.560;2023-04-07T08:25:20;8.35;;;5.90;;
31095;SDS011;17749;51.962;8.560;2023-04-07T08:27:47;9.57;;;5.25;;
31095;SDS011;17749;51.962;8.560;2023-04-07T08:30:15;8.32;;;5.60;;
31095;SDS011;17749;51.962;8.560;2023-04-07T08:32:43;6.97;;;4.90;;
31095;SDS011;17749;51.962;8.560;2023-04-07T08:35:25;8.55;;;5.38;;
31095;SDS011;17749;51.962;8.560;2023-04-07T08:37:52;7.55;;;5.05;;
31095;SDS011;17749;51.962;8.560;2023-04-07T08:40:19;7.63;;;4.82;;
31095;SDS011;17749;51.962;8.560;2023-04-07T08:42:47;6.30;;;4.07;;
31095;SDS011;17749;51.962;8.560;2023-04-07T08:45:20;6.90;;;4.78;;
31095;SDS011;17749;51.962;8.560;2023-04-07T08:47:47;6.03;;;4.35;;
31095;SDS011;17749;51.962;8.560;2023-04-07T08:50:19;7.55;;;4.30;;
31095;SDS011;17749;51.962;8.560;2023-04-07T08:52:54;6.03;;;4.03;;
31095;SDS011;17749;51.962;8.560;2023-04-07T08:55:23;7.13;;;3.85;;
31095;SDS011;17749;51.962;8.560;2023-04-07T08:57:51;6.38;;;4.28;;
31095;SDS011;17749;51.962;8.560;2023-04-07T09:00:21;6.18;;;4.22;;
31095;SDS011;17749;51.962;8.560;2023-04-07T09:02:50;6.72;;;4.13;;
31095;SDS011;17749;51.962;8.560;2023-04-07T09:05:17;8.38;;;4.35;;
31095;SDS011;17749;51.962;8.560;2023-04-07T09:07:44;6.18;;;4.22;;
31095;SDS011;17749;51.962;8.560;2023-04-07T09:10:15;5.63;;;4.07;;
31095;SDS011;17749;51.962;8.560;2023-04-07T09:12:44;5.43;;;4.05;;
31095;SDS011;17749;51.962;8.560;2023-04-07T09:15:11;6.68;;;4.53;;
31095;SDS011;17749;51.962;8.560;2023-04-07T09:17:39;6.25;;;4.30;;
31095;SDS011;17749;51.962;8.560;2023-04-07T09:20:06;5.97;;;4.30;;
31095;SDS011;17749;51.962;8.560;2023-04-07T09:22:41;5.15;;;4.20;;
31095;SDS011;17749;51.962;8.560;2023-04-07T09:25:13;6.13;;;4.10;;
31095;SDS011;17749;51.962;8.560;2023-04-07T09:27:58;7.25;;;4.22;;
31095;SDS011;17749;51.962;8.560;2023-04-07T09:30:33;5.88;;;4.30;;
31095;SDS011;17749;51.962;8.560;2023-04-07T09:33:03;7.28;;;4.28;;
31095;SDS011;17749;51.962;8.560;2023-04-07T09:35:31;5.85;;;4.13;;
31095;SDS011;17749;51.962;8.560;2023-04-07T09:38:06;5.15;;;4.15;;
31095;SDS011;17749;51.962;8.560;2023-04-07T09:40:46;5.30;;;4.07;;
31095;SDS011;17749;51.962;8.560;2023-04-07T09:43:18;5.32;;;3.80;;
31095;SDS011;17749;51.962;8.560;2023-04-07T09:45:50;5.55;;;3.70;;
31095;SDS011;17749;51.962;8.560;2023-04-07T09:48:19;4.97;;;4.15;;
31095;SDS011;17749;51.962;8.560;2023-04-07T09:50:47;4.28;;;3.30;;
31095;SDS011;17749;51.962;8.560;2023-04-07T09:53:15;5.88;;;4.35;;
31095;SDS011;17749;51.962;8.560;2023-04-07T09:55:42;6.80;;;4.40;;
31095;SDS011;17749;51.962;8.560;2023-04-07T09:58:12;7.00;;;4.97;;
31095;SDS011;17749;51.962;8.560;2023-04-07T10:00:40;5.88;;;4.47;;
31095;SDS011;17749;51.962;8.560;2023-04-07T10:03:08;6.68;;;4.15;;
31095;SDS011;17749;51.962;8.560;2023-04-07T10:05:35;7.93;;;4.97;;
31095;SDS011;17749;51.962;8.560;2023-04-07T10:08:02;6.63;;;4.75;;
31095;SDS011;17749;51.962;8.560;2023-04-07T10:10:32;5.88;;;4.57;;
31095;SDS011;17749;51.962;8.560;2023-04-07T10:13:00;5.40;;;3.80;;
31095;SDS011;17749;51.962;8.560;2023-04-07T10:15:30;6.38;;;4.57;;
31095;SDS011;17749;51.962;8.560;2023-04-07T10:17:58;4.93;;;4.10;;
31095;SDS011;17749;51.962;8.560;2023-04-07T10:20:25;6.38;;;4.75;;
31095;SDS011;17749;51.962;8.560;2023-04-07T10:22:54;6.45;;;4.75;;
31095;SDS011;17749;51.962;8.560;2023-04-07T10:25:29;6.90;;;4.80;;
31095;SDS011;17749;51.962;8.560;2023-04-07T10:28:02;5.15;;;4.20;;
31095;SDS011;17749;51.962;8.560;2023-04-07T10:30:31;8.40;;;5.03;;
31095;SDS011;17749;51.962;8.560;2023-04-07T10:33:00;8.13;;;4.50;;
31095;SDS011;17749;51.962;8.560;2023-04-07T10:35:28;6.95;;;4.38;;
31095;SDS011;17749;51.962;8.560;2023-04-07T10:41:30;6.20;;;4.65;;
31095;SDS011;17749;51.962;8.560;2023-04-07T10:44:04;5.95;;;4.15;;
31095;SDS011;17749;51.962;8.560;2023-04-07T10:49:11;6.07;;;4.03;;
31095;SDS011;17749;51.962;8.560;2023-04-07T10:51:39;6.10;;;4.40;;
31095;SDS011;17749;51.962;8.560;2023-04-07T10:54:21;6.60;;;4.68;;
31095;SDS011;17749;51.962;8.560;2023-04-07T10:57:04;5.55;;;4.05;;
31095;SDS011;17749;51.962;8.560;2023-04-07T10:59:33;5.50;;;4.00;;
31095;SDS011;17749;51.962;8.560;2023-04-07T11:02:28;6.90;;;4.88;;
31095;SDS011;17749;51.962;8.560;2023-04-07T11:04:53;6.57;;;4.85;;
31095;SDS011;17749;51.962;8.560;2023-04-07T11:07:22;6.70;;;4.38;;
31095;SDS011;17749;51.962;8.560;2023-04-07T11:10:15;6.65;;;4.22;;
31095;SDS011;17749;51.962;8.560;2023-04-07T11:12:57;6.43;;;4.68;;
31095;SDS011;17749;51.962;8.560;2023-04-07T11:15:35;5.93;;;4.13;;
31095;SDS011;17749;51.962;8.560;2023-04-07T11:18:07;7.40;;;5.15;;
31095;SDS011;17749;51.962;8.560;2023-04-07T11:20:39;5.07;;;4.03;;
31095;SDS011;17749;51.962;8.560;2023-04-07T11:23:10;7.28;;;4.25;;
31095;SDS011;17749;51.962;8.560;2023-04-07T11:25:37;5.90;;;4.47;;
31095;SDS011;17749;51.962;8.560;2023-04-07T11:28:04;9.07;;;5.00;;
31095;SDS011;17749;51.962;8.560;2023-04-07T11:30:31;8.15;;;4.93;;
31095;SDS011;17749;51.962;8.560;2023-04-07T11:32:58;6.72;;;4.68;;
31095;SDS011;17749;51.962;8.560;2023-04-07T11:35:25;5.63;;;4.15;;
31095;SDS011;17749;51.962;8.560;2023-04-07T11:37:59;6.28;;;4.97;;
31095;SDS011;17749;51.962;8.560;2023-04-07T11:40:34;7.63;;;4.57;;
31095;SDS011;17749;51.962;8.560;2023-04-07T11:43:14;6.60;;;4.65;;
31095;SDS011;17749;51.962;8.560;2023-04-07T11:45:42;9.95;;;5.90;;
31095;SDS011;17749;51.962;8.560;2023-04-07T11:48:29;6.63;;;4.60;;
31095;SDS011;17749;51.962;8.560;2023-04-07T11:50:57;7.55;;;4.57;;
31095;SDS011;17749;51.962;8.560;2023-04-07T11:53:25;7.18;;;5.25;;
31095;SDS011;17749;51.962;8.560;2023-04-07T11:55:59;6.97;;;5.43;;
31095;SDS011;17749;51.962;8.560;2023-04-07T11:58:38;6.20;;;4.45;;
31095;SDS011;17749;51.962;8.560;2023-04-07T12:01:11;6.90;;;5.15;;
31095;SDS011;17749;51.962;8.560;2023-04-07T12:03:53;5.88;;;4.55;;
31095;SDS011;17749;51.962;8.560;2023-04-07T12:06:29;7.40;;;4.72;;
31095;SDS011;17749;51.962;8.560;2023-04-07T12:09:00;6.95;;;5.15;;
31095;SDS011;17749;51.962;8.560;2023-04-07T12:11:28;9.68;;;6.53;;
31095;SDS011;17749;51.962;8.560;2023-04-07T12:13:55;6.15;;;5.00;;
31095;SDS011;17749;51.962;8.560;2023-04-07T12:16:22;7.72;;;5.22;;
31095;SDS011;17749;51.962;8.560;2023-04-07T12:18:49;6.15;;;5.30;;
31095;SDS011;17749;51.962;8.560;2023-04-07T12:21:20;9.30;;;5.00;;
31095;SDS011;17749;51.962;8.560;2023-04-07T12:23:47;7.15;;;5.15;;
31095;SDS011;17749;51.962;8.560;2023-04-07T12:26:14;6.55;;;4.85;;
31095;SDS011;17749;51.962;8.560;2023-04-07T12:28:41;6.68;;;4.95;;
31095;SDS011;17749;51.962;8.560;2023-04-07T12:31:08;6.85;;;5.45;;
31095;SDS011;17749;51.962;8.560;2023-04-07T12:33:35;7.40;;;5.40;;
31095;SDS011;17749;51.962;8.560;2023-04-07T12:36:02;9.57;;;5.90;;
31095;SDS011;17749;51.962;8.560;2023-04-07T12:38:30;8.38;;;6.43;;
31095;SDS011;17749;51.962;8.560;2023-04-07T12:40:57;7.00;;;5.50;;
31095;SDS011;17749;51.962;8.560;2023-04-07T12:43:29;8.35;;;6.78;;
31095;SDS011;17749;51.962;8.560;2023-04-07T12:45:57;7.78;;;6.07;;
31095;SDS011;17749;51.962;8.560;2023-04-07T12:48:24;6.72;;;5.18;;
31095;SDS011;17749;51.962;8.560;2023-04-07T12:50:52;6.13;;;4.75;;
31095;SDS011;17749;51.962;8.560;2023-04-07T12:53:20;7.40;;;4.65;;
31095;SDS011;17749;51.962;8.560;2023-04-07T12:55:48;6.72;;;4.82;;
31095;SDS011;17749;51.962;8.560;2023-04-07T12:58:16;5.45;;;4.05;;
31095;SDS011;17749;51.962;8.560;2023-04-07T13:00:43;6.60;;;4.82;;
31095;SDS011;17749;51.962;8.560;2023-04-07T13:03:10;6.57;;;4.88;;
31095;SDS011;17749;51.962;8.560;2023-04-07T13:05:37;5.70;;;4.40;;
31095;SDS011;17749;51.962;8.560;2023-04-07T13:08:04;6.82;;;4.47;;
31095;SDS011;17749;51.962;8.560;2023-04-07T13:10:33;5.43;;;4.20;;
31095;SDS011;17749;51.962;8.560;2023-04-07T13:13:00;4.75;;;3.95;;
31095;SDS011;17749;51.962;8.560;2023-04-07T13:15:27;6.20;;;4.60;;
31095;SDS011;17749;51.962;8.560;2023-04-07T13:17:54;8.95;;;5.57;;
31095;SDS011;17749;51.962;8.560;2023-04-07T13:20:21;7.85;;;5.32;;
31095;SDS011;17749;51.962;8.560;2023-04-07T13:22:48;8.40;;;6.25;;
31095;SDS011;17749;51.962;8.560;2023-04-07T13:25:32;7.00;;;5.18;;
31095;SDS011;17749;51.962;8.560;2023-04-07T13:28:00;5.82;;;4.47;;
31095;SDS011;17749;51.962;8.560;2023-04-07T13:30:27;6.15;;;4.65;;
31095;SDS011;17749;51.962;8.560;2023-04-07T13:32:54;8.60;;;6.28;;
31095;SDS011;17749;51.962;8.560;2023-04-07T13:35:21;8.82;;;7.55;;
31095;SDS011;17749;51.962;8.560;2023-04-07T13:37:48;6.80;;;5.93;;
31095;SDS011;17749;51.962;8.560;2023-04-07T13:40:15;7.38;;;4.70;;
31095;SDS011;17749;51.962;8.560;2023-04-07T13:42:42;6.82;;;4.72;;
31095;SDS011;17749;51.962;8.560;2023-04-07T13:45:09;7.28;;;4.50;;
31095;SDS011;17749;51.962;8.560;2023-04-07T13:47:36;8.15;;;5.05;;
31095;SDS011;17749;51.962;8.560;2023-04-07T13:50:04;7.82;;;4.18;;
31095;SDS011;17749;51.962;8.560;2023-04-07T13:52:31;6.53;;;4.60;;
31095;SDS011;17749;51.962;8.560;2023-04-07T13:55:01;6.70;;;5.22;;
31095;SDS011;17749;51.962;8.560;2023-04-07T13:57:29;6.53;;;5.25;;
31095;SDS011;17749;51.962;8.560;2023-04-07T13:59:57;5.72;;;4.70;;
31095;SDS011;17749;51.962;8.560;2023-04-07T14:02:26;7.55;;;5.25;;
31095;SDS011;17749;51.962;8.560;2023-04-07T14:04:55;7.13;;;5.18;;
31095;SDS011;17749;51.962;8.560;2023-04-07T14:07:22;7.45;;;5.95;;
31095;SDS011;17749;51.962;8.560;2023-04-07T14:09:49;8.60;;;5.70;;
31095;SDS011;17749;51.962;8.560;2023-04-07T14:12:16;7.18;;;5.20;;
31095;SDS011;17749;51.962;8.560;2023-04-07T14:14:43;6.47;;;4.95;;
31095;SDS011;17749;51.962;8.560;2023-04-07T14:17:10;11.45;;;7.05;;
31095;SDS011;17749;51.962;8.560;2023-04-07T14:19:37;6.97;;;5.30;;
31095;SDS011;17749;51.962;8.560;2023-04-07T14:22:04;6.78;;;5.03;;
31095;SDS011;17749;51.962;8.560;2023-04-07T14:24:31;7.95;;;5.72;;
31095;SDS011;17749;51.962;8.560;2023-04-07T14:26:58;8.07;;;6.18;;
31095;SDS011;17749;51.962;8.560;2023-04-07T14:29:27;10.80;;;6.13;;
31095;SDS011;17749;51.962;8.560;2023-04-07T14:31:54;7.60;;;5.82;;
31095;SDS011;17749;51.962;8.560;2023-04-07T14:34:21;7.25;;;5.55;;
31095;SDS011;17749;51.962;8.560;2023-04-07T14:36:54;8.55;;;6.00;;
31095;SDS011;17749;51.962;8.560;2023-04-07T14:39:24;8.15;;;6.00;;
31095;SDS011;17749;51.962;8.560;2023-04-07T14:41:51;9.05;;;6.22;;
31095;SDS011;17749;51.962;8.560;2023-04-07T14:44:19;8.55;;;6.30;;
31095;SDS011;17749;51.962;8.560;2023-04-07T14:46:46;7.97;;;6.03;;
31095;SDS011;17749;51.962;8.560;2023-04-07T14:49:14;7.53;;;5.68;;
31095;SDS011;17749;51.962;8.560;2023-04-07T14:51:41;8.88;;;6.20;;
31095;SDS011;17749;51.962;8.560;2023-04-07T14:54:08;8.68;;;5.97;;
31095;SDS011;17749;51.962;8.560;2023-04-07T14:56:35;7.95;;;5.82;;
31095;SDS011;17749;51.962;8.560;2023-04-07T14:59:02;7.40;;;5.80;;
31095;SDS011;17749;51.962;8.560;2023-04-07T15:01:28;8.15;;;6.10;;
31095;SDS011;17749;51.962;8.560;2023-04-07T15:03:56;10.70;;;6.38;;
31095;SDS011;17749;51.962;8.560;2023-04-07T15:08:53;8.38;;;5.80;;
31095;SDS011;17749;51.962;8.560;2023-04-07T15:11:20;6.47;;;5.88;;
31095;SDS011;17749;51.962;8.560;2023-04-07T15:13:47;7.68;;;5.72;;
31095;SDS011;17749;51.962;8.560;2023-04-07T15:16:14;8.40;;;6.20;;
31095;SDS011;17749;51.962;8.560;2023-04-07T15:18:43;9.20;;;5.80;;
31095;SDS011;17749;51.962;8.560;2023-04-07T15:21:11;8.50;;;5.80;;
31095;SDS011;17749;51.962;8.560;2023-04-07T15:23:39;6.60;;;5.43;;
31095;SDS011;17749;51.962;8.560;2023-04-07T15:26:07;8.30;;;6.22;;
31095;SDS011;17749;51.962;8.560;2023-04-07T15:28:35;6.95;;;5.53;;
31095;SDS011;17749;51.962;8.560;2023-04-07T15:31:03;8.32;;;6.63;;
31095;SDS011;17749;51.962;8.560;2023-04-07T15:33:38;9.18;;;6.03;;
31095;SDS011;17749;51.962;8.560;2023-04-07T15:36:06;7.88;;;6.25;;
31095;SDS011;17749;51.962;8.560;2023-04-07T15:38:34;7.55;;;5.97;;
31095;SDS011;17749;51.962;8.560;2023-04-07T15:41:02;10.32;;;6.78;;
31095;SDS011;17749;51.962;8.560;2023-04-07T15:43:29;7.25;;;5.88;;
31095;SDS011;17749;51.962;8.560;2023-04-07T15:45:56;17.15;;;11.32;;
31095;SDS011;17749;51.962;8.560;2023-04-07T15:48:23;10.55;;;7.10;;
31095;SDS011;17749;51.962;8.560;2023-04-07T15:50:50;10.60;;;7.82;;
31095;SDS011;17749;51.962;8.560;2023-04-07T15:53:19;11.20;;;7.45;;
31095;SDS011;17749;51.962;8.560;2023-04-07T15:55:46;30.20;;;20.70;;
31095;SDS011;17749;51.962;8.560;2023-04-07T15:58:13;16.73;;;13.75;;
31095;SDS011;17749;51.962;8.560;2023-04-07T16:00:40;12.98;;;9.35;;
31095;SDS011;17749;51.962;8.560;2023-04-07T16:03:07;9.82;;;7.75;;
31095;SDS011;17749;51.962;8.560;2023-04-07T16:05:36;8.60;;;6.22;;
31095;SDS011;17749;51.962;8.560;2023-04-07T16:08:03;10.65;;;7.15;;
31095;SDS011;17749;51.962;8.560;2023-04-07T16:10:30;12.43;;;8.80;;
31095;SDS011;17749;51.962;8.560;2023-04-07T16:12:57;9.10;;;6.68;;
31095;SDS011;17749;51.962;8.560;2023-04-07T16:15:24;13.43;;;9.20;;
31095;SDS011;17749;51.962;8.560;2023-04-07T16:18:07;13.30;;;9.40;;
31095;SDS011;17749;51.962;8.560;2023-04-07T16:20:35;16.08;;;11.77;;
31095;SDS011;17749;51.962;8.560;2023-04-07T16:23:02;13.00;;;8.40;;
31095;SDS011;17749;51.962;8.560;2023-04-07T16:25:29;14.70;;;10.18;;
31095;SDS011;17749;51.962;8.560;2023-04-07T16:27:56;12.77;;;7.82;;
31095;SDS011;17749;51.962;8.560;2023-04-07T16:30:23;8.65;;;6.55;;
31095;SDS011;17749;51.962;8.560;2023-04-07T16:32:50;12.10;;;8.07;;
31095;SDS011;17749;51.962;8.560;2023-04-07T16:35:18;10.82;;;6.75;;
31095;SDS011;17749;51.962;8.560;2023-04-07T16:37:45;8.18;;;5.47;;
31095;SDS011;17749;51.962;8.560;2023-04-07T16:40:12;6.75;;;4.82;;
31095;SDS011;17749;51.962;8.560;2023-04-07T16:42:39;12.23;;;7.35;;
31095;SDS011;17749;51.962;8.560;2023-04-07T16:45:06;9.35;;;6.53;;
31095;SDS011;17749;51.962;8.560;2023-04-07T16:47:33;10.38;;;6.18;;
31095;SDS011;17749;51.962;8.560;2023-04-07T16:50:01;8.68;;;6.07;;
31095;SDS011;17749;51.962;8.560;2023-04-07T16:52:30;7.50;;;5.28;;
31095;SDS011;17749;51.962;8.560;2023-04-07T16:54:57;6.70;;;5.20;;
31095;SDS011;17749;51.962;8.560;2023-04-07T16:57:24;11.52;;;6.30;;
31095;SDS011;17749;51.962;8.560;2023-04-07T16:59:51;8.77;;;5.93;;
31095;SDS011;17749;51.962;8.560;2023-04-07T17:02:18;9.65;;;5.72;;
31095;SDS011;17749;51.962;8.560;2023-04-07T17:04:46;14.73;;;6.93;;
31095;SDS011;17749;51.962;8.560;2023-04-07T17:07:13;12.82;;;6.68;;
31095;SDS011;17749;51.962;8.560;2023-04-07T17:09:40;13.40;;;6.78;;
31095;SDS011;17749;51.962;8.560;2023-04-07T17:12:07;11.07;;;6.55;;
31095;SDS011;17749;51.962;8.560;2023-04-07T17:14:33;6.70;;;4.88;;
31095;SDS011;17749;51.962;8.560;2023-04-07T17:17:00;10.77;;;6.78;;
31095;SDS011;17749;51.962;8.560;2023-04-07T17:19:28;9.23;;;5.97;;
31095;SDS011;17749;51.962;8.560;2023-04-07T17:21:55;11.90;;;6.80;;
31095;SDS011;17749;51.962;8.560;2023-04-07T17:24:22;7.93;;;6.05;;
31095;SDS011;17749;51.962;8.560;2023-04-07T17:26:49;7.15;;;5.38;;
31095;SDS011;17749;51.962;8.560;2023-04-07T17:29:16;7.30;;;5.50;;
31095;SDS011;17749;51.962;8.560;2023-04-07T17:31:43;9.23;;;5.10;;
31095;SDS011;17749;51.962;8.560;2023-04-07T17:34:10;7.43;;;4.50;;
31095;SDS011;17749;51.962;8.560;2023-04-07T17:36:37;7.03;;;4.60;;
31095;SDS011;17749;51.962;8.560;2023-04-07T17:39:04;8.52;;;5.07;;
31095;SDS011;17749;51.962;8.560;2023-04-07T17:41:31;7.13;;;4.82;;
31095;SDS011;17749;51.962;8.560;2023-04-07T17:44:00;7.65;;;5.20;;
31095;SDS011;17749;51.962;8.560;2023-04-07T17:46:27;7.85;;;5.00;;
31095;SDS011;17749;51.962;8.560;2023-04-07T17:48:55;7.45;;;4.40;;
31095;SDS011;17749;51.962;8.560;2023-04-07T17:51:25;7.95;;;5.10;;
31095;SDS011;17749;51.962;8.560;2023-04-07T17:53:53;6.00;;;4.60;;
31095;SDS011;17749;51.962;8.560;2023-04-07T17:56:20;7.22;;;5.07;;
31095;SDS011;17749;51.962;8.560;2023-04-07T17:58:47;37.90;;;21.25;;
31095;SDS011;17749;51.962;8.560;2023-04-07T18:01:14;34.25;;;20.15;;
31095;SDS011;17749;51.962;8.560;2023-04-07T18:03:42;17.67;;;11.95;;
31095;SDS011;17749;51.962;8.560;2023-04-07T18:06:13;8.57;;;6.10;;
31095;SDS011;17749;51.962;8.560;2023-04-07T18:08:43;6.63;;;5.05;;
31095;SDS011;17749;51.962;8.560;2023-04-07T18:11:12;8.00;;;4.43;;
31095;SDS011;17749;51.962;8.560;2023-04-07T18:13:39;7.03;;;5.63;;
31095;SDS011;17749;51.962;8.560;2023-04-07T18:16:06;9.10;;;5.78;;
31095;SDS011;17749;51.962;8.560;2023-04-07T18:18:35;11.98;;;5.75;;
31095;SDS011;17749;51.962;8.560;2023-04-07T18:21:05;12.23;;;6.30;;
31095;SDS011;17749;51.962;8.560;2023-04-07T18:23:33;12.27;;;6.47;;
31095;SDS011;17749;51.962;8.560;2023-04-07T18:26:03;15.02;;;6.78;;
31095;SDS011;17749;51.962;8.560;2023-04-07T18:28:30;11.00;;;6.85;;
31095;SDS011;17749;51.962;8.560;2023-04-07T18:30:58;10.88;;;7.60;;
31095;SDS011;17749;51.962;8.560;2023-04-07T18:33:34;11.60;;;7.78;;
31095;SDS011;17749;51.962;8.560;2023-04-07T18:36:02;13.55;;;6.78;;
31095;SDS011;17749;51.962;8.560;2023-04-07T18:38:33;9.82;;;6.82;;
31095;SDS011;17749;51.962;8.560;2023-04-07T18:41:06;10.75;;;7.50;;
31095;SDS011;17749;51.962;8.560;2023-04-07T18:43:33;8.80;;;6.78;;
31095;SDS011;17749;51.962;8.560;2023-04-07T18:46:00;10.57;;;7.57;;
31095;SDS011;17749;51.962;8.560;2023-04-07T18:48:27;15.30;;;9.10;;
31095;SDS011;17749;51.962;8.560;2023-04-07T18:50:54;16.10;;;10.48;;
31095;SDS011;17749;51.962;8.560;2023-04-07T18:53:22;16.65;;;10.77;;
31095;SDS011;17749;51.962;8.560;2023-04-07T18:55:50;14.63;;;9.60;;
31095;SDS011;17749;51.962;8.560;2023-04-07T18:58:17;15.60;;;9.50;;
31095;SDS011;17749;51.962;8.560;2023-04-07T19:00:45;15.63;;;10.40;;
31095;SDS011;17749;51.962;8.560;2023-04-07T19:03:15;13.20;;;9.73;;
31095;SDS011;17749;51.962;8.560;2023-04-07T19:05:43;14.52;;;10.75;;
31095;SDS011;17749;51.962;8.560;2023-04-07T19:08:13;18.35;;;9.90;;
31095;SDS011;17749;51.962;8.560;2023-04-07T19:10:41;18.80;;;11.05;;
31095;SDS011;17749;51.962;8.560;2023-04-07T19:13:09;19.50;;;12.15;;
31095;SDS011;17749;51.962;8.560;2023-04-07T19:15:36;17.75;;;11.80;;
31095;SDS011;17749;51.962;8.560;2023-04-07T19:18:04;20.00;;;11.95;;
31095;SDS011;17749;51.962;8.560;2023-04-07T19:20:33;19.83;;;12.65;;
31095;SDS011;17749;51.962;8.560;2023-04-07T19:23:00;19.90;;;12.60;;
31095;SDS011;17749;51.962;8.560;2023-04-07T19:25:27;21.48;;;11.93;;
31095;SDS011;17749;51.962;8.560;2023-04-07T19:27:55;16.98;;;11.15;;
31095;SDS011;17749;51.962;8.560;2023-04-07T19:30:22;15.93;;;10.65;;
31095;SDS011;17749;51.962;8.560;2023-04-07T19:32:49;19.80;;;11.15;;
31095;SDS011;17749;51.962;8.560;2023-04-07T19:35:16;15.77;;;10.63;;
31095;SDS011;17749;51.962;8.560;2023-04-07T19:37:43;17.00;;;11.30;;
31095;SDS011;17749;51.962;8.560;2023-04-07T19:42:40;14.73;;;9.48;;
31095;SDS011;17749;51.962;8.560;2023-04-07T19:45:07;15.55;;;10.40;;
31095;SDS011;17749;51.962;8.560;2023-04-07T19:47:35;17.13;;;10.68;;
31095;SDS011;17749;51.962;8.560;2023-04-07T19:50:03;17.52;;;10.77;;
31095;SDS011;17749;51.962;8.560;2023-04-07T19:52:31;15.60;;;10.65;;
31095;SDS011;17749;51.962;8.560;2023-04-07T19:54:58;18.13;;;11.38;;
31095;SDS011;17749;51.962;8.560;2023-04-07T19:57:26;15.88;;;10.88;;
31095;SDS011;17749;51.962;8.560;2023-04-07T19:59:54;16.20;;;10.13;;
31095;SDS011;17749;51.962;8.560;2023-04-07T20:02:21;14.60;;;11.18;;
31095;SDS011;17749;51.962;8.560;2023-04-07T20:04:48;16.42;;;11.18;;
31095;SDS011;17749;51.962;8.560;2023-04-07T20:07:15;17.30;;;11.40;;
31095;SDS011;17749;51.962;8.560;2023-04-07T20:09:41;18.17;;;11.57;;